createdAt,value
2022-12-16T00:00:25.517Z,99763.28
2022-12-16T00:01:36.587Z,99760.06
2022-12-16T00:02:45.049Z,99762.00
2022-12-16T00:03:54.971Z,99752.31
2022-12-16T00:05:02.970Z,99759.72
2022-12-16T00:06:11.027Z,99768.09
2022-12-16T00:07:20.958Z,99758.25
2022-12-16T00:08:28.004Z,99756.50
2022-12-16T00:09:33.720Z,99750.56
2022-12-16T00:10:57.258Z,99754.06
2022-12-16T00:12:09.618Z,99754.91
2022-12-16T00:13:12.611Z,99753.34
2022-12-16T00:14:23.813Z,99752.19
2022-12-16T00:15:33.371Z,99743.47
2022-12-16T00:16:57.295Z,99749.44
2022-12-16T00:18:03.369Z,99750.91
2022-12-16T00:19:07.905Z,99741.63
2022-12-16T00:20:14.441Z,99740.41
2022-12-16T00:21:19.436Z,99733.38
2022-12-16T00:22:25.144Z,99733.59
2022-12-16T00:23:34.628Z,99730.81
2022-12-16T00:24:43.206Z,99732.56
2022-12-16T00:25:49.404Z,99730.41
2022-12-16T00:26:57.381Z,99721.31
2022-12-16T00:28:05.637Z,99729.38
2022-12-16T00:29:12.005Z,99723.69
2022-12-16T00:30:20.874Z,99733.59
2022-12-16T00:31:27.313Z,99727.19
2022-12-16T00:32:33.596Z,99734.84
2022-12-16T00:33:49.146Z,99731.78
2022-12-16T00:35:04.981Z,99722.44
2022-12-16T00:36:20.117Z,99726.91
2022-12-16T00:37:27.665Z,99735.03
2022-12-16T00:38:36.019Z,99720.81
2022-12-16T00:39:44.177Z,99729.19
2022-12-16T00:40:56.635Z,99724.63
2022-12-16T00:42:04.392Z,99716.97
2022-12-16T00:43:10.891Z,99713.53
2022-12-16T00:44:19.348Z,99718.31
2022-12-16T00:45:26.005Z,99721.31
2022-12-16T00:47:02.757Z,99721.66
2022-12-16T00:49:02.639Z,99719.47
2022-12-16T00:50:15.280Z,99715.97
2022-12-16T00:51:28.155Z,99715.00
2022-12-16T00:52:51.749Z,99713.22
2022-12-16T00:54:04.152Z,99717.38
2022-12-16T00:55:15.416Z,99723.78
2022-12-16T00:56:21.473Z,99711.97
2022-12-16T00:57:25.807Z,99715.19
2022-12-16T00:58:30.491Z,99715.34
2022-12-16T00:59:39.110Z,99715.34
2022-12-16T01:00:45.665Z,99710.53
2022-12-16T01:01:50.865Z,99715.34
2022-12-16T01:02:57.207Z,99716.94
2022-12-16T01:04:02.727Z,99716.66
2022-12-16T01:05:09.153Z,99713.13
2022-12-16T01:06:17.310Z,99711.88
2022-12-16T01:07:26.117Z,99721.38
2022-12-16T01:08:31.538Z,99714.69
2022-12-16T01:09:38.262Z,99717.56
2022-12-16T01:10:44.069Z,99721.09
2022-12-16T01:11:52.124Z,99714.72
2022-12-16T01:13:01.307Z,99728.78
2022-12-16T01:14:07.258Z,99724.63
2022-12-16T01:15:12.877Z,99733.56
2022-12-16T01:16:28.148Z,99727.69
2022-12-16T01:17:33.299Z,99730.69
2022-12-16T01:18:37.198Z,99724.31
2022-12-16T01:19:43.935Z,99723.50
2022-12-16T01:20:51.561Z,99731.19
2022-12-16T01:21:58.164Z,99727.66
2022-12-16T01:23:08.803Z,99729.31
2022-12-16T01:24:12.205Z,99725.75
2022-12-16T01:25:23.023Z,99732.31
2022-12-16T01:26:31.759Z,99729.25
2022-12-16T01:27:48.486Z,99732.59
2022-12-16T01:28:52.041Z,99737.72
2022-12-16T01:29:56.734Z,99733.13
2022-12-16T01:31:08.955Z,99727.41
2022-12-16T01:32:14.651Z,99728.00
2022-12-16T01:33:24.824Z,99723.38
2022-12-16T01:34:41.601Z,99723.72
2022-12-16T01:35:55.513Z,99728.50
2022-12-16T01:37:10.121Z,99737.72
2022-12-16T01:38:24.053Z,99731.56
2022-12-16T01:39:36.443Z,99726.34
2022-12-16T01:40:45.020Z,99721.41
2022-12-16T01:41:55.273Z,99730.97
2022-12-16T01:43:04.184Z,99722.34
2022-12-16T01:44:24.417Z,99731.41
2022-12-16T01:45:34.241Z,99730.44
2022-12-16T01:46:40.741Z,99723.47
2022-12-16T01:47:48.756Z,99715.19
2022-12-16T01:49:07.788Z,99721.56
2022-12-16T01:50:19.240Z,99739.50
2022-12-16T01:51:36.891Z,99729.25
2022-12-16T01:52:49.676Z,99729.09
2022-12-16T01:55:37.344Z,99726.53
2022-12-16T01:56:53.333Z,99729.56
2022-12-16T01:58:26.420Z,99727.44
2022-12-16T02:00:51.899Z,99723.22
2022-12-16T02:01:59.008Z,99733.75
2022-12-16T02:03:08.880Z,99737.25
2022-12-16T02:04:14.203Z,99722.88
2022-12-16T02:05:30.753Z,99724.75
2022-12-16T02:06:38.566Z,99721.78
2022-12-16T02:07:46.386Z,99722.53
2022-12-16T02:08:54.413Z,99724.13
2022-12-16T02:14:40.268Z,99730.38
2022-12-16T02:16:17.212Z,99723.84
2022-12-16T02:17:32.745Z,99727.91
2022-12-16T02:18:52.100Z,99730.75
2022-12-16T02:20:16.738Z,99730.28
2022-12-16T02:21:37.152Z,99733.00
2022-12-16T02:23:04.450Z,99730.97
2022-12-16T02:24:32.532Z,99726.81
2022-12-16T02:25:45.432Z,99732.84
2022-12-16T02:29:57.348Z,99736.34
2022-12-16T02:31:19.212Z,99729.03
2022-12-16T02:32:31.303Z,99735.09
2022-12-16T02:33:55.934Z,99727.28
2022-12-16T02:35:19.567Z,99730.63
2022-12-16T02:36:33.339Z,99729.00
2022-12-16T02:37:59.055Z,99739.72
2022-12-16T02:39:18.421Z,99733.78
2022-12-16T02:40:28.191Z,99738.09
2022-12-16T02:41:37.125Z,99742.25
2022-12-16T02:43:03.247Z,99744.84
2022-12-16T02:45:59.319Z,99744.06
2022-12-16T02:47:25.515Z,99742.00
2022-12-16T02:48:33.978Z,99731.28
2022-12-16T02:49:42.060Z,99733.88
2022-12-16T02:50:48.957Z,99740.06
2022-12-16T02:51:58.287Z,99744.72
2022-12-16T02:53:05.164Z,99738.97
2022-12-16T02:54:17.831Z,99730.28
2022-12-16T02:55:33.226Z,99731.91
2022-12-16T02:58:36.970Z,99740.22
2022-12-16T02:59:43.216Z,99731.59
2022-12-16T03:03:01.492Z,99736.56
2022-12-16T03:04:16.197Z,99741.53
2022-12-16T03:05:37.356Z,99743.59
2022-12-16T03:06:53.337Z,99735.94
2022-12-16T03:08:03.607Z,99742.97
2022-12-16T03:09:12.598Z,99743.16
2022-12-16T03:10:26.248Z,99756.56
2022-12-16T03:11:31.566Z,99744.75
2022-12-16T03:12:40.888Z,99749.22
2022-12-16T03:13:48.782Z,99740.59
2022-12-16T03:15:08.043Z,99744.75
2022-12-16T03:16:26.951Z,99737.22
2022-12-16T03:19:21.022Z,99738.84
2022-12-16T03:20:30.250Z,99741.88
2022-12-16T03:21:53.937Z,99740.75
2022-12-16T03:23:01.079Z,99739.81
2022-12-16T03:24:14.052Z,99749.53
2022-12-16T03:25:28.064Z,99752.13
2022-12-16T03:26:55.875Z,99743.66
2022-12-16T03:28:06.729Z,99742.84
2022-12-16T03:29:20.479Z,99750.50
2022-12-16T03:30:41.211Z,99747.81
2022-12-16T03:31:50.485Z,99754.34
2022-12-16T03:33:02.517Z,99752.53
2022-12-16T03:36:07.008Z,99762.16
2022-12-16T03:37:15.697Z,99752.56
2022-12-16T03:38:24.028Z,99759.94
2022-12-16T03:39:29.055Z,99765.69
2022-12-16T03:40:33.745Z,99766.00
2022-12-16T03:41:42.629Z,99771.56
2022-12-16T03:42:47.854Z,99763.91
2022-12-16T03:43:54.703Z,99766.78
2022-12-16T03:45:01.112Z,99767.75
2022-12-16T03:46:10.177Z,99775.06
2022-12-16T03:47:23.147Z,99776.22
2022-12-16T03:48:33.633Z,99782.28
2022-12-16T03:52:53.729Z,99773.84
2022-12-16T03:53:58.611Z,99774.47
2022-12-16T03:55:03.094Z,99772.06
2022-12-16T03:56:08.466Z,99773.97
2022-12-16T03:57:15.842Z,99781.81
2022-12-16T03:58:26.516Z,99785.66
2022-12-16T03:59:33.892Z,99774.63
2022-12-16T04:01:01.224Z,99782.28
2022-12-16T04:02:10.324Z,99779.56
2022-12-16T04:03:14.785Z,99788.22
2022-12-16T04:04:25.601Z,99787.69
2022-12-16T04:05:38.418Z,99795.25
2022-12-16T04:12:48.130Z,99803.47
2022-12-16T04:14:09.524Z,99807.66
2022-12-16T04:15:38.630Z,99811.81
2022-12-16T04:17:01.660Z,99821.13
2022-12-16T04:18:25.556Z,99813.91
2022-12-16T04:19:52.584Z,99819.84
2022-12-16T04:21:17.652Z,99820.78
2022-12-16T04:22:43.513Z,99828.91
2022-12-16T04:27:27.026Z,99834.53
2022-12-16T04:28:35.610Z,99827.28
2022-12-16T04:30:05.024Z,99844.41
2022-12-16T04:31:33.291Z,99840.13
2022-12-16T04:33:01.078Z,99839.03
2022-12-16T04:34:25.805Z,99848.25
2022-12-16T04:36:09.313Z,99845.09
2022-12-16T04:37:34.125Z,99850.34
2022-12-16T04:39:09.110Z,99857.06
2022-12-16T04:44:31.640Z,99863.31
2022-12-16T04:50:26.848Z,99866.53
2022-12-16T04:51:50.268Z,99865.56
2022-12-16T04:53:15.905Z,99867.47
2022-12-16T04:54:45.178Z,99871.69
2022-12-16T04:56:13.305Z,99871.34
2022-12-16T05:00:57.486Z,99890.88
2022-12-16T05:02:29.550Z,99891.78
2022-12-16T05:04:03.132Z,99891.50
2022-12-16T05:05:37.717Z,99896.31
2022-12-16T05:07:09.142Z,99900.09
2022-12-16T05:08:41.010Z,99900.13
2022-12-16T05:10:04.287Z,99904.88
2022-12-16T05:11:27.385Z,99914.81
2022-12-16T05:12:55.122Z,99904.88
2022-12-16T05:14:30.044Z,99909.06
2022-12-16T05:15:57.150Z,99907.66
2022-12-16T05:17:25.971Z,99912.63
2022-12-16T05:19:00.664Z,99920.78
2022-12-16T05:20:28.516Z,99917.44
2022-12-16T05:23:40.418Z,99926.97
2022-12-16T05:25:08.949Z,99915.34
2022-12-16T05:29:47.078Z,99926.81
2022-12-16T05:33:12.730Z,99942.03
2022-12-16T05:34:34.868Z,99945.84
2022-12-16T05:35:55.678Z,99942.66
2022-12-16T05:37:16.289Z,99942.38
2022-12-16T05:38:37.691Z,99952.44
2022-12-16T05:39:59.203Z,99940.88
2022-12-16T05:43:43.052Z,99960.44
2022-12-16T05:45:41.277Z,99960.44
2022-12-16T05:47:04.621Z,99958.53
2022-12-16T05:48:27.157Z,99963.66
2022-12-16T05:49:47.767Z,99970.06
2022-12-16T05:53:13.560Z,99967.81
2022-12-16T05:54:38.927Z,99975.31
2022-12-16T05:56:10.455Z,99970.19
2022-12-16T05:57:31.630Z,99974.81
2022-12-16T05:58:54.808Z,99984.25
2022-12-16T06:00:15.651Z,99978.03
2022-12-16T06:01:37.359Z,99984.94
2022-12-16T06:03:00.438Z,99989.94
2022-12-16T06:04:22.611Z,99997.41
2022-12-16T06:05:44.158Z,99987.47
2022-12-16T06:07:08.584Z,100001.41
2022-12-16T06:08:31.779Z,100002.06
2022-12-16T06:09:57.043Z,100005.06
2022-12-16T06:11:26.944Z,100007.66
2022-12-16T06:12:50.531Z,100013.97
2022-12-16T06:14:20.503Z,100009.72
2022-12-16T06:15:42.662Z,100012.94
2022-12-16T06:17:13.896Z,100024.25
2022-12-16T06:18:35.697Z,100023.56
2022-12-16T06:22:01.486Z,100024.53
2022-12-16T06:23:25.626Z,100036.19
2022-12-16T06:24:50.003Z,100032.56
2022-12-16T06:26:14.118Z,100051.97
2022-12-16T06:27:40.193Z,100036.53
2022-12-16T06:29:03.266Z,100044.84
2022-12-16T06:30:25.065Z,100042.53
2022-12-16T06:31:45.859Z,100049.34
2022-12-16T06:33:08.858Z,100052.81
2022-12-16T06:34:29.580Z,100049.94
2022-12-16T06:35:59.124Z,100071.72
2022-12-16T06:37:20.069Z,100070.78
2022-12-16T06:38:41.697Z,100069.66
2022-12-16T06:40:04.551Z,100079.25
2022-12-16T06:41:52.400Z,100084.50
2022-12-16T06:43:14.937Z,100086.69
2022-12-16T06:44:36.085Z,100091.47
2022-12-16T06:46:00.031Z,100091.28
2022-12-16T06:47:20.967Z,100097.78
2022-12-16T06:48:43.332Z,100095.75
2022-12-16T06:50:04.830Z,100103.16
2022-12-16T06:51:27.898Z,100115.00
2022-12-16T06:52:49.059Z,100112.72
2022-12-16T06:54:27.159Z,100128.38
2022-12-16T06:56:17.332Z,100129.44
2022-12-16T06:57:38.089Z,100135.41
2022-12-16T06:59:00.761Z,100133.44
2022-12-16T07:00:22.335Z,100144.63
2022-12-16T07:01:44.745Z,100142.00
2022-12-16T07:03:07.916Z,100150.44
2022-12-16T07:04:30.722Z,100149.41
2022-12-16T07:05:54.158Z,100154.00
2022-12-16T07:07:20.055Z,100160.00
2022-12-16T07:08:44.879Z,100154.19
2022-12-16T07:10:06.541Z,100157.06
2022-12-16T07:11:27.844Z,100153.72
2022-12-16T07:12:52.090Z,100162.44
2022-12-16T07:14:19.640Z,100167.34
2022-12-16T07:15:41.099Z,100175.88
2022-12-16T07:17:03.790Z,100175.69
2022-12-16T07:18:25.104Z,100177.69
2022-12-16T07:19:45.665Z,100183.06
2022-12-16T07:21:06.604Z,100184.69
2022-12-16T07:22:27.389Z,100192.88
2022-12-16T07:23:48.574Z,100198.56
2022-12-16T07:25:09.383Z,100197.22
2022-12-16T07:26:33.575Z,100200.78
2022-12-16T07:27:55.863Z,100207.44
2022-12-16T07:29:16.685Z,100212.50
2022-12-16T07:30:38.388Z,100217.94
2022-12-16T07:32:00.501Z,100219.34
2022-12-16T07:33:23.150Z,100221.59
2022-12-16T07:34:50.543Z,100233.03
2022-12-16T07:36:12.699Z,100226.34
2022-12-16T07:37:50.932Z,100232.78
2022-12-16T07:39:12.043Z,100234.00
2022-12-16T07:40:34.659Z,100241.44
2022-12-16T07:41:57.675Z,100248.47
2022-12-16T07:43:19.344Z,100244.25
2022-12-16T07:44:41.166Z,100255.03
2022-12-16T07:46:05.491Z,100252.75
2022-12-16T07:47:26.774Z,100271.47
2022-12-16T07:48:48.294Z,100275.06
2022-12-16T07:50:10.865Z,100281.94
2022-12-16T07:51:33.088Z,100274.50
2022-12-16T07:52:56.145Z,100277.53
2022-12-16T07:54:43.441Z,100280.91
2022-12-16T07:56:05.168Z,100273.88
2022-12-16T07:57:32.698Z,100286.56
2022-12-16T07:58:54.332Z,100283.09
2022-12-16T08:00:20.666Z,100289.75
2022-12-16T08:01:46.979Z,100297.00
2022-12-16T08:03:14.861Z,100287.88
2022-12-16T08:04:37.066Z,100291.88
2022-12-16T08:05:58.475Z,100310.50
2022-12-16T08:07:20.655Z,100308.00
2022-12-16T08:08:42.773Z,100300.84
2022-12-16T08:10:04.537Z,100308.59
2022-12-16T08:11:26.083Z,100303.66
2022-12-16T08:12:47.993Z,100307.06
2022-12-16T08:14:09.712Z,100307.06
2022-12-16T08:15:30.792Z,100313.13
2022-12-16T08:16:52.835Z,100309.56
2022-12-16T08:18:14.382Z,100303.25
2022-12-16T08:19:35.356Z,100310.50
2022-12-16T08:20:57.151Z,100319.84
2022-12-16T08:22:20.308Z,100324.75
2022-12-16T08:23:42.199Z,100324.38
2022-12-16T08:25:03.868Z,100319.63
2022-12-16T08:26:27.304Z,100328.41
2022-12-16T08:27:50.538Z,100334.41
2022-12-16T08:29:42.700Z,100332.81
2022-12-16T08:30:55.691Z,100338.03
2022-12-16T08:32:19.854Z,100342.69
2022-12-16T08:33:40.788Z,100345.09
2022-12-16T08:35:04.022Z,100344.34
2022-12-16T08:36:26.655Z,100346.19
2022-12-16T08:37:57.606Z,100348.72
2022-12-16T08:39:23.186Z,100346.91
2022-12-16T08:40:44.944Z,100354.00
2022-12-16T08:42:07.749Z,100357.50
2022-12-16T08:43:33.618Z,100355.13
2022-12-16T08:44:55.165Z,100359.84
2022-12-16T08:46:18.000Z,100354.22
2022-12-16T08:47:39.251Z,100369.00
2022-12-16T08:49:03.753Z,100372.44
2022-12-16T08:50:26.233Z,100362.94
2022-12-16T08:51:48.753Z,100371.66
2022-12-16T08:53:12.804Z,100370.72
2022-12-16T08:54:37.010Z,100379.53
2022-12-16T08:55:58.667Z,100377.66
2022-12-16T08:57:20.367Z,100379.63
2022-12-16T08:58:46.145Z,100374.63
2022-12-16T09:00:10.526Z,100386.78
2022-12-16T09:01:33.345Z,100388.88
2022-12-16T09:02:55.988Z,100388.59
2022-12-16T09:04:17.806Z,100401.97
2022-12-16T09:05:42.028Z,100395.94
2022-12-16T09:07:05.382Z,100393.88
2022-12-16T09:08:28.335Z,100407.25
2022-12-16T09:09:49.932Z,100404.78
2022-12-16T09:11:11.806Z,100403.19
2022-12-16T09:12:35.382Z,100407.84
2022-12-16T09:14:01.555Z,100411.44
2022-12-16T09:15:27.398Z,100410.34
2022-12-16T09:16:50.924Z,100417.13
2022-12-16T09:18:14.775Z,100415.09
2022-12-16T09:19:37.976Z,100416.16
2022-12-16T09:21:00.085Z,100421.03
2022-12-16T09:22:26.217Z,100423.06
2022-12-16T09:23:47.685Z,100423.72
2022-12-16T09:25:09.662Z,100429.03
2022-12-16T09:26:44.723Z,100419.03
2022-12-16T09:28:09.498Z,100430.34
2022-12-16T09:29:33.481Z,100430.97
2022-12-16T09:30:55.671Z,100434.38
2022-12-16T09:32:18.065Z,100436.22
2022-12-16T09:33:41.262Z,100437.94
2022-12-16T09:35:07.374Z,100437.25
2022-12-16T09:36:34.859Z,100443.59
2022-12-16T09:38:04.151Z,100449.34
2022-12-16T09:39:25.448Z,100440.50
2022-12-16T09:40:50.209Z,100450.28
2022-12-16T09:42:20.539Z,100451.06
2022-12-16T09:43:59.963Z,100450.88
2022-12-16T09:45:25.397Z,100447.91
2022-12-16T09:46:50.658Z,100454.31
2022-12-16T09:48:28.819Z,100457.81
2022-12-16T09:50:08.773Z,100459.19
2022-12-16T09:51:32.072Z,100464.91
2022-12-16T09:53:17.124Z,100461.28
2022-12-16T09:54:46.869Z,100461.66
2022-12-16T10:00:13.452Z,100469.88
2022-12-16T10:01:37.585Z,100475.63
2022-12-16T10:03:06.601Z,100471.81
2022-12-16T10:04:35.020Z,100481.00
2022-12-16T10:06:15.509Z,100488.19
2022-12-16T10:07:39.764Z,100481.84
2022-12-16T10:09:15.561Z,100491.44
2022-12-16T10:11:04.632Z,100492.69
2022-12-16T10:12:45.333Z,100500.44
2022-12-16T10:14:19.464Z,100500.75
2022-12-16T10:15:46.708Z,100501.03
2022-12-16T10:17:18.034Z,100511.56
2022-12-16T10:19:01.803Z,100503.19
2022-12-16T10:20:31.716Z,100508.16
2022-12-16T10:22:26.170Z,100506.88
2022-12-16T10:24:15.333Z,100511.44
2022-12-16T10:25:39.836Z,100513.59
2022-12-16T10:27:14.436Z,100515.28
2022-12-16T10:28:39.833Z,100517.47
2022-12-16T10:30:01.992Z,100515.88
2022-12-16T10:31:44.878Z,100527.72
2022-12-16T10:33:07.913Z,100524.09
2022-12-16T10:34:33.359Z,100531.06
2022-12-16T10:36:02.784Z,100532.06
2022-12-16T10:37:26.424Z,100538.44
2022-12-16T10:38:51.580Z,100541.78
2022-12-16T10:40:18.724Z,100541.31
2022-12-16T10:41:54.956Z,100548.19
2022-12-16T10:43:30.712Z,100551.13
2022-12-16T10:44:57.347Z,100555.44
2022-12-16T10:46:23.734Z,100552.59
2022-12-16T10:47:45.485Z,100553.47
2022-12-16T10:49:10.803Z,100552.50
2022-12-16T10:50:32.583Z,100557.72
2022-12-16T10:52:00.896Z,100549.47
2022-12-16T10:53:34.804Z,100557.09
2022-12-16T10:55:05.932Z,100554.31
2022-12-16T10:59:17.892Z,100563.22
2022-12-16T11:00:57.269Z,100574.06
2022-12-16T11:02:50.869Z,100580.31
2022-12-16T11:04:13.428Z,100578.78
2022-12-16T11:05:45.260Z,100583.47
2022-12-16T11:07:06.821Z,100588.03
2022-12-16T11:08:44.043Z,100595.88
2022-12-16T11:10:22.937Z,100594.13
2022-12-16T11:11:45.629Z,100603.22
2022-12-16T11:14:59.530Z,100608.34
2022-12-16T11:16:33.825Z,100611.38
2022-12-16T11:17:56.204Z,100604.59
2022-12-16T11:19:19.062Z,100612.31
2022-12-16T11:20:42.639Z,100623.84
2022-12-16T11:22:06.713Z,100622.75
2022-12-16T11:23:44.767Z,100625.88
2022-12-16T11:25:22.833Z,100629.38
2022-12-16T11:26:47.712Z,100627.00
2022-12-16T11:28:10.422Z,100639.03
2022-12-16T11:29:37.389Z,100635.72
2022-12-16T11:31:00.552Z,100640.88
2022-12-16T11:32:40.432Z,100649.69
2022-12-16T11:34:04.429Z,100642.19
2022-12-16T11:35:31.658Z,100651.28
2022-12-16T11:36:57.521Z,100658.41
2022-12-16T11:38:21.046Z,100660.00
2022-12-16T11:40:03.058Z,100663.75
2022-12-16T11:41:27.895Z,100668.81
2022-12-16T11:43:04.359Z,100667.78
2022-12-16T11:44:38.450Z,100676.56
2022-12-16T11:46:32.730Z,100678.19
2022-12-16T11:48:12.480Z,100687.25
2022-12-16T11:49:43.292Z,100689.22
2022-12-16T11:53:33.734Z,100680.28
2022-12-16T11:55:04.369Z,100684.56
2022-12-16T11:56:29.713Z,100684.38
2022-12-16T11:57:58.634Z,100688.78
2022-12-16T11:59:38.475Z,100689.41
2022-12-16T12:01:30.409Z,100700.59
2022-12-16T12:03:01.684Z,100701.91
2022-12-16T12:04:28.103Z,100709.28
2022-12-16T12:06:02.339Z,100712.16
2022-12-16T12:10:58.466Z,100714.22
2022-12-16T12:13:23.649Z,100714.59
2022-12-16T12:23:36.732Z,100731.88
2022-12-16T12:28:30.702Z,100736.75
2022-12-16T12:39:21.471Z,100745.63
2022-12-16T12:44:36.726Z,100749.31
2022-12-16T13:03:46.563Z,100772.97
2022-12-16T14:55:01.788Z,100905.84
2022-12-16T14:57:13.164Z,100899.00
2022-12-16T14:59:06.723Z,100910.59
2022-12-16T15:01:56.931Z,100916.16
2022-12-16T15:10:51.388Z,100907.44
2022-12-16T15:12:51.477Z,100910.22
2022-12-16T15:15:16.804Z,100911.81
2022-12-16T15:17:36.162Z,100917.22
2022-12-16T15:24:20.319Z,100933.31
2022-12-16T21:29:48.966Z,101055.22
2022-12-16T21:34:10.334Z,101058.78
2022-12-16T21:38:10.428Z,101051.75
2022-12-16T21:40:18.712Z,101048.22
2022-12-16T21:42:34.651Z,101053.91
2022-12-16T21:44:23.225Z,101054.44
2022-12-16T21:48:07.309Z,101053.91
2022-12-16T21:49:29.836Z,101053.38
2022-12-16T21:51:29.222Z,101048.44
2022-12-16T21:52:56.406Z,101060.94
2022-12-16T21:54:21.285Z,101058.75
2022-12-16T21:55:48.139Z,101062.56
2022-12-16T21:57:16.440Z,101055.50
2022-12-16T21:58:50.445Z,101052.28
2022-12-16T22:00:19.699Z,101056.06
2022-12-16T22:01:53.871Z,101059.31
2022-12-16T22:03:23.370Z,101057.66
2022-12-16T22:04:48.764Z,101054.16
2022-12-16T22:06:22.606Z,101059.03
2022-12-16T22:11:31.658Z,101059.84
2022-12-16T22:12:57.062Z,101065.53
2022-12-16T22:14:23.259Z,101065.56
2022-12-16T22:16:00.851Z,101060.69
2022-12-16T22:17:31.550Z,101043.59
2022-12-16T22:19:18.799Z,101045.25
2022-12-16T22:20:47.745Z,101044.19
2022-12-16T22:22:50.254Z,101038.75
2022-12-16T22:35:31.082Z,101049.06
2022-12-16T22:37:18.961Z,101046.88
2022-12-16T22:41:03.066Z,101039.28
2022-12-16T22:44:57.320Z,101047.41
2022-12-16T22:47:04.070Z,101038.75
2022-12-16T22:50:18.594Z,101047.41
2022-12-16T22:51:48.867Z,101047.16
2022-12-16T22:53:27.165Z,101051.22
2022-12-16T23:03:40.308Z,101049.03
2022-12-16T23:05:11.635Z,101049.31
2022-12-16T23:07:08.648Z,101052.31
2022-12-16T23:08:56.725Z,101045.78
2022-12-16T23:10:25.683Z,101044.72
2022-12-16T23:13:41.346Z,101054.19
2022-12-16T23:15:44.971Z,101057.44
2022-12-16T23:19:34.036Z,101057.16
2022-12-16T23:21:09.712Z,101054.47
2022-12-16T23:22:51.843Z,101050.91
2022-12-16T23:24:43.937Z,101052.00
2022-12-16T23:30:26.648Z,101057.69
2022-12-16T23:32:03.070Z,101057.16
2022-12-16T23:33:40.771Z,101049.59
2022-12-16T23:41:13.966Z,101036.56
2022-12-16T23:44:56.449Z,101035.75
2022-12-16T23:46:33.179Z,101043.06
2022-12-16T23:48:29.575Z,101043.63
2022-12-16T23:50:01.729Z,101048.22
2022-12-16T23:51:48.383Z,101047.44
2022-12-16T23:53:25.651Z,101045.50
2022-12-16T23:55:03.785Z,101040.38
